createdAt,value
2023-01-13T00:01:26.036Z,1.50
2023-01-13T00:03:53.129Z,1.20
2023-01-13T00:06:25.813Z,1.92
2023-01-13T00:08:53.534Z,1.70
2023-01-13T00:11:20.820Z,2.78
2023-01-13T00:13:47.964Z,2.00
2023-01-13T00:16:17.581Z,2.22
2023-01-13T00:18:45.550Z,2.42
2023-01-13T00:21:18.353Z,2.50
2023-01-13T00:23:46.171Z,1.38
2023-01-13T00:26:18.245Z,2.95
2023-01-13T00:28:45.530Z,1.92
2023-01-13T00:31:15.358Z,2.58
2023-01-13T00:33:43.098Z,2.10
2023-01-13T00:36:13.054Z,2.00
2023-01-13T00:38:42.888Z,1.35
2023-01-13T00:41:24.001Z,2.47
2023-01-13T00:43:51.339Z,2.67
2023-01-13T00:46:20.415Z,2.15
2023-01-13T00:48:48.163Z,1.80
2023-01-13T00:51:17.860Z,2.20
2023-01-13T00:53:48.465Z,1.67
2023-01-13T00:56:16.653Z,2.35
2023-01-13T00:58:45.830Z,2.58
2023-01-13T01:01:20.814Z,2.08
2023-01-13T01:03:49.351Z,2.95
2023-01-13T01:06:19.605Z,1.70
2023-01-13T01:08:46.932Z,2.10
2023-01-13T01:11:21.287Z,2.47
2023-01-13T01:13:52.036Z,2.97
2023-01-13T01:16:21.811Z,3.42
2023-01-13T01:18:50.932Z,2.88
2023-01-13T01:21:18.858Z,2.67
2023-01-13T01:23:46.212Z,2.92
2023-01-13T01:26:15.996Z,2.50
2023-01-13T01:28:43.432Z,2.85
2023-01-13T01:31:14.264Z,2.53
2023-01-13T01:33:41.605Z,3.13
2023-01-13T01:36:09.894Z,3.17
2023-01-13T01:38:37.478Z,1.88
2023-01-13T01:41:04.470Z,2.50
2023-01-13T01:44:08.097Z,2.13
2023-01-13T01:46:38.200Z,3.80
2023-01-13T01:49:18.150Z,3.40
2023-01-13T01:52:21.333Z,2.30
2023-01-13T01:55:10.491Z,2.88
2023-01-13T01:57:51.432Z,2.70
2023-01-13T02:00:18.715Z,2.60
2023-01-13T02:02:49.713Z,2.78
2023-01-13T02:05:17.627Z,2.97
2023-01-13T02:07:47.717Z,3.03
2023-01-13T02:10:19.556Z,3.47
2023-01-13T02:12:48.826Z,2.80
2023-01-13T02:15:22.648Z,2.75
2023-01-13T02:18:17.423Z,2.30
2023-01-13T02:23:54.024Z,2.58
2023-01-13T02:26:39.111Z,1.80
2023-01-13T02:29:30.449Z,2.67
2023-01-13T02:32:21.730Z,3.22
2023-01-13T02:35:20.519Z,1.98
2023-01-13T02:37:48.782Z,2.17
2023-01-13T02:40:56.779Z,3.42
2023-01-13T02:43:45.052Z,2.53
2023-01-13T02:46:22.423Z,3.20
2023-01-13T02:48:52.838Z,1.55
2023-01-13T02:51:24.116Z,2.67
2023-01-13T02:54:14.315Z,2.97
2023-01-13T02:56:46.781Z,3.42
2023-01-13T02:59:14.595Z,2.13
2023-01-13T03:01:43.297Z,2.05
2023-01-13T03:04:15.864Z,2.97
2023-01-13T03:06:45.481Z,2.22
2023-01-13T03:09:29.925Z,1.83
2023-01-13T03:14:47.976Z,2.85
2023-01-13T03:17:37.384Z,4.63
2023-01-13T03:20:32.073Z,3.20
2023-01-13T03:25:54.392Z,2.58
2023-01-13T03:28:29.684Z,3.88
2023-01-13T03:31:08.126Z,3.65
2023-01-13T03:33:45.420Z,3.38
2023-01-13T03:36:15.038Z,5.38
2023-01-13T03:38:51.149Z,2.85
2023-01-13T03:41:26.376Z,3.38
2023-01-13T03:44:23.953Z,3.67
2023-01-13T03:47:13.862Z,3.58
2023-01-13T03:50:14.342Z,2.22
2023-01-13T03:53:06.755Z,2.88
2023-01-13T03:55:40.194Z,3.95
2023-01-13T03:58:30.577Z,4.43
2023-01-13T04:01:12.221Z,2.42
2023-01-13T04:03:45.273Z,2.58
2023-01-13T04:06:30.346Z,4.63
2023-01-13T04:09:18.740Z,3.45
2023-01-13T04:11:53.786Z,3.38
2023-01-13T04:14:22.860Z,3.80
2023-01-13T04:16:49.990Z,4.00
2023-01-13T04:19:17.041Z,3.58
2023-01-13T04:21:44.304Z,4.00
2023-01-13T04:24:11.296Z,3.65
2023-01-13T04:26:38.198Z,2.97
2023-01-13T04:29:05.181Z,2.53
2023-01-13T04:31:32.135Z,2.65
2023-01-13T04:33:59.176Z,3.60
2023-01-13T04:36:27.772Z,4.10
2023-01-13T04:38:55.281Z,3.40
2023-01-13T04:41:22.226Z,3.75
2023-01-13T04:43:49.237Z,3.47
2023-01-13T04:46:16.198Z,4.03
2023-01-13T04:48:43.169Z,4.68
2023-01-13T04:51:10.141Z,4.70
2023-01-13T04:53:37.119Z,4.57
2023-01-13T04:56:04.152Z,3.00
2023-01-13T04:58:31.142Z,4.55
2023-01-13T05:00:58.118Z,4.70
2023-01-13T05:03:26.810Z,3.08
2023-01-13T05:05:53.812Z,3.85
2023-01-13T05:08:20.770Z,4.53
2023-01-13T05:10:47.758Z,4.75
2023-01-13T05:13:33.177Z,3.90
2023-01-13T05:16:19.787Z,2.70
2023-01-13T05:18:46.923Z,4.68
2023-01-13T05:21:33.859Z,2.75
2023-01-13T05:24:19.432Z,2.97
2023-01-13T05:26:46.445Z,3.67
2023-01-13T05:29:13.451Z,5.18
2023-01-13T05:31:40.731Z,5.22
2023-01-13T05:34:07.722Z,4.65
2023-01-13T05:36:34.732Z,5.43
2023-01-13T05:39:01.695Z,3.90
2023-01-13T05:41:47.429Z,3.47
2023-01-13T05:44:14.435Z,4.28
2023-01-13T05:46:42.043Z,2.90
2023-01-13T05:49:09.085Z,5.07
2023-01-13T05:51:36.036Z,2.58
2023-01-13T05:54:03.047Z,3.22
2023-01-13T05:56:30.046Z,3.90
2023-01-13T05:58:57.044Z,3.80
2023-01-13T06:01:23.992Z,2.45
2023-01-13T06:03:50.976Z,2.45
2023-01-13T06:06:17.989Z,2.42
2023-01-13T06:08:44.957Z,2.80
2023-01-13T06:11:11.964Z,3.65
2023-01-13T06:13:38.971Z,3.20
2023-01-13T06:16:06.309Z,3.15
2023-01-13T06:18:33.348Z,4.05
2023-01-13T06:21:00.352Z,2.55
2023-01-13T06:23:27.329Z,2.95
2023-01-13T06:26:19.048Z,2.65
2023-01-13T06:28:46.115Z,2.80
2023-01-13T06:31:13.164Z,2.78
2023-01-13T06:33:48.690Z,4.10
2023-01-13T06:36:22.560Z,3.17
2023-01-13T06:38:54.280Z,4.18
2023-01-13T06:41:40.339Z,3.50
2023-01-13T06:44:07.523Z,3.05
2023-01-13T06:46:35.683Z,4.93
2023-01-13T06:49:02.768Z,4.70
2023-01-13T06:51:29.800Z,3.58
2023-01-13T06:53:56.794Z,5.40
2023-01-13T06:56:23.961Z,4.53
2023-01-13T06:58:51.006Z,5.68
2023-01-13T07:01:18.040Z,3.90
2023-01-13T07:03:45.081Z,3.45
2023-01-13T07:06:12.084Z,4.32
2023-01-13T07:08:39.043Z,3.28
2023-01-13T07:11:06.235Z,4.28
2023-01-13T07:13:54.023Z,3.20
2023-01-13T07:16:21.142Z,3.30
2023-01-13T07:18:48.094Z,5.70
2023-01-13T07:21:18.880Z,4.43
2023-01-13T07:23:47.609Z,2.97
2023-01-13T07:26:16.207Z,3.45
2023-01-13T07:28:43.611Z,4.82
2023-01-13T07:31:19.003Z,3.33
2023-01-13T07:33:46.491Z,3.75
2023-01-13T07:36:14.385Z,3.15
2023-01-13T07:38:41.543Z,5.15
2023-01-13T07:41:31.593Z,3.03
2023-01-13T07:44:00.313Z,2.97
2023-01-13T07:46:27.535Z,5.07
2023-01-13T07:48:54.557Z,4.57
2023-01-13T07:51:21.477Z,4.93
2023-01-13T07:53:49.014Z,5.00
2023-01-13T07:56:15.988Z,4.15
2023-01-13T07:58:43.030Z,5.30
2023-01-13T08:01:14.115Z,4.53
2023-01-13T08:03:41.294Z,4.30
2023-01-13T08:06:08.532Z,3.88
2023-01-13T08:08:35.891Z,3.53
2023-01-13T08:11:04.227Z,5.50
2023-01-13T08:13:31.715Z,4.60
2023-01-13T08:16:17.080Z,3.42
2023-01-13T08:18:44.209Z,3.75
2023-01-13T08:21:13.975Z,5.45
2023-01-13T08:23:42.531Z,6.13
2023-01-13T08:26:13.542Z,4.28
2023-01-13T08:28:40.663Z,3.50
2023-01-13T08:31:10.743Z,3.22
2023-01-13T08:33:37.920Z,3.63
2023-01-13T08:36:07.983Z,4.82
2023-01-13T08:38:36.520Z,3.25
2023-01-13T08:41:14.468Z,3.80
2023-01-13T08:43:41.883Z,4.65
2023-01-13T08:46:09.129Z,3.67
2023-01-13T08:48:36.221Z,4.50
2023-01-13T08:51:06.126Z,3.67
2023-01-13T08:53:33.232Z,6.25
2023-01-13T08:56:00.205Z,3.53
2023-01-13T08:58:27.477Z,3.17
2023-01-13T09:00:54.629Z,3.95
2023-01-13T09:03:21.705Z,4.35
2023-01-13T09:05:48.753Z,3.80
2023-01-13T09:08:15.815Z,6.50
2023-01-13T09:10:42.802Z,5.25
2023-01-13T09:13:13.620Z,4.03
2023-01-13T09:15:42.456Z,6.85
2023-01-13T09:18:09.584Z,4.78
2023-01-13T09:20:37.036Z,6.03
2023-01-13T09:23:05.673Z,4.30
2023-01-13T09:25:36.584Z,4.63
2023-01-13T09:28:05.116Z,6.07
2023-01-13T09:30:32.371Z,5.15
2023-01-13T09:33:28.827Z,4.65
2023-01-13T09:35:59.351Z,4.10
2023-01-13T09:38:26.405Z,4.38
2023-01-13T09:40:54.715Z,5.22
2023-01-13T09:43:47.583Z,3.72
2023-01-13T09:46:49.339Z,3.75
2023-01-13T09:49:31.203Z,5.40
2023-01-13T09:52:15.653Z,5.35
2023-01-13T09:57:19.334Z,5.57
2023-01-13T09:59:46.712Z,6.13
2023-01-13T10:02:32.147Z,5.97
2023-01-13T10:05:36.977Z,7.13
2023-01-13T10:08:25.971Z,7.03
2023-01-13T10:10:59.759Z,6.45
2023-01-13T10:13:26.779Z,6.43
2023-01-13T10:16:07.067Z,6.15
2023-01-13T10:19:00.704Z,4.68
2023-01-13T10:21:36.550Z,4.95
2023-01-13T10:24:16.248Z,6.95
2023-01-13T10:27:07.558Z,5.75
2023-01-13T10:29:36.986Z,6.25
2023-01-13T10:32:04.396Z,4.22
2023-01-13T10:34:31.476Z,6.35
2023-01-13T10:37:06.601Z,4.25
2023-01-13T10:39:45.066Z,6.05
2023-01-13T10:42:18.115Z,5.43
2023-01-13T10:44:59.006Z,5.87
2023-01-13T10:47:29.277Z,6.28
2023-01-13T10:50:10.970Z,6.75
2023-01-13T10:52:43.461Z,6.10
2023-01-13T10:55:26.019Z,6.30
2023-01-13T10:57:53.124Z,5.20
2023-01-13T11:00:28.603Z,5.68
2023-01-13T11:03:22.543Z,5.30
2023-01-13T11:06:00.269Z,5.57
2023-01-13T11:08:40.181Z,5.32
2023-01-13T11:11:33.849Z,4.10
2023-01-13T11:14:23.961Z,4.70
2023-01-13T11:16:55.275Z,5.57
2023-01-13T11:19:27.601Z,3.58
2023-01-13T11:22:12.342Z,4.63
2023-01-13T11:24:51.241Z,5.68
2023-01-13T11:27:33.786Z,5.28
2023-01-13T11:30:21.168Z,5.40
2023-01-13T11:33:14.441Z,4.15
2023-01-13T11:36:14.421Z,4.43
2023-01-13T11:38:52.122Z,5.68
2023-01-13T11:41:29.800Z,5.95
2023-01-13T11:44:28.432Z,6.05
2023-01-13T11:46:55.621Z,6.05
2023-01-13T11:49:27.042Z,6.07
2023-01-13T11:52:23.694Z,5.25
2023-01-13T11:55:22.674Z,4.15
2023-01-13T11:58:07.494Z,5.13
2023-01-13T12:01:05.698Z,5.82
2023-01-13T12:03:38.513Z,5.53
2023-01-13T12:06:37.937Z,5.60
2023-01-13T12:09:23.056Z,5.15
2023-01-13T12:12:19.879Z,4.85
2023-01-13T12:15:15.677Z,5.88
2023-01-13T12:18:01.541Z,6.57
2023-01-13T12:20:47.060Z,5.00
2023-01-13T12:23:29.176Z,4.72
2023-01-13T12:26:10.311Z,4.55
2023-01-13T12:28:53.479Z,4.38
2023-01-13T12:31:22.186Z,5.00
2023-01-13T12:33:59.601Z,5.20
2023-01-13T12:36:42.258Z,4.25
2023-01-13T12:39:15.005Z,5.45
2023-01-13T12:42:10.655Z,4.53
2023-01-13T12:44:37.765Z,4.22
2023-01-13T12:47:04.730Z,4.80
2023-01-13T12:49:36.646Z,5.10
2023-01-13T12:52:12.594Z,5.40
2023-01-13T12:54:39.594Z,5.43
2023-01-13T12:57:22.178Z,5.35
2023-01-13T13:00:04.031Z,4.40
2023-01-13T13:02:36.953Z,5.40
2023-01-13T13:05:25.112Z,5.55
2023-01-13T13:08:19.227Z,6.13
2023-01-13T13:11:32.508Z,5.38
2023-01-13T13:14:05.695Z,4.63
2023-01-13T13:16:44.301Z,5.28
2023-01-13T13:19:21.264Z,5.03
2023-01-13T13:22:12.993Z,5.60
2023-01-13T13:25:03.653Z,5.28
2023-01-13T13:28:09.336Z,4.53
2023-01-13T13:30:39.524Z,5.07
2023-01-13T13:33:09.489Z,5.22
2023-01-13T13:35:51.830Z,6.38
2023-01-13T13:38:52.492Z,4.90
2023-01-13T13:41:43.820Z,5.22
2023-01-13T13:44:48.259Z,4.75
2023-01-13T13:47:15.283Z,4.68
2023-01-13T13:49:46.046Z,6.13
2023-01-13T13:52:30.321Z,5.75
2023-01-13T13:57:39.461Z,4.82
2023-01-13T14:00:18.935Z,4.85
2023-01-13T14:02:58.962Z,4.22
2023-01-13T14:05:37.351Z,4.40
2023-01-13T14:08:17.459Z,4.28
2023-01-13T14:10:46.280Z,5.32
2023-01-13T14:13:25.182Z,4.70
2023-01-13T14:16:06.874Z,4.43
2023-01-13T14:18:42.888Z,4.93
2023-01-13T14:21:19.878Z,4.55
2023-01-13T14:24:05.628Z,4.03
2023-01-13T14:26:32.711Z,4.82
2023-01-13T14:29:02.027Z,5.43
2023-01-13T14:31:30.100Z,4.18
2023-01-13T14:33:59.655Z,4.88
2023-01-13T14:36:36.787Z,4.55
2023-01-13T14:39:03.705Z,4.78
2023-01-13T14:41:37.103Z,4.78
2023-01-13T14:44:34.659Z,5.72
2023-01-13T14:47:16.758Z,5.22
2023-01-13T14:50:04.973Z,5.50
2023-01-13T14:52:37.693Z,5.15
2023-01-13T14:55:10.140Z,5.05
2023-01-13T14:57:39.685Z,5.38
2023-01-13T15:00:15.971Z,5.15
2023-01-13T15:02:58.285Z,4.78
2023-01-13T15:05:30.115Z,5.68
2023-01-13T15:07:59.293Z,4.88
2023-01-13T15:10:35.064Z,5.32
2023-01-13T15:13:05.531Z,5.40
2023-01-13T15:15:37.892Z,5.53
2023-01-13T15:18:17.098Z,5.97
2023-01-13T15:20:44.803Z,6.78
2023-01-13T15:23:12.027Z,6.43
2023-01-13T15:25:42.753Z,6.75
2023-01-13T15:28:21.564Z,6.22
2023-01-13T15:30:50.526Z,6.45
2023-01-13T15:33:18.496Z,7.95
2023-01-13T15:35:47.954Z,6.38
2023-01-13T15:38:18.670Z,7.72
2023-01-13T15:40:47.088Z,6.25
2023-01-13T15:43:34.828Z,6.22
2023-01-13T15:46:22.893Z,6.30
2023-01-13T15:48:54.925Z,6.03
2023-01-13T15:51:22.094Z,4.53
2023-01-13T15:53:49.121Z,7.38
2023-01-13T15:56:23.672Z,6.53
2023-01-13T15:58:50.715Z,7.30
2023-01-13T16:01:17.845Z,8.65
2023-01-13T16:03:45.060Z,5.50
2023-01-13T16:06:27.739Z,6.80
2023-01-13T16:08:54.783Z,4.10
2023-01-13T16:11:21.680Z,8.60
2023-01-13T16:13:48.698Z,8.10
2023-01-13T16:16:27.699Z,4.90
2023-01-13T16:18:55.263Z,6.63
2023-01-13T16:21:22.829Z,4.68
2023-01-13T16:23:50.976Z,6.10
2023-01-13T16:26:24.471Z,8.07
2023-01-13T16:28:53.525Z,6.90
2023-01-13T16:31:31.938Z,7.97
2023-01-13T16:34:00.756Z,7.60
2023-01-13T16:36:29.409Z,6.45
2023-01-13T16:38:57.475Z,5.10
2023-01-13T16:41:27.460Z,7.07
2023-01-13T16:43:54.695Z,4.55
2023-01-13T16:46:25.060Z,5.45
2023-01-13T16:48:57.944Z,6.95
2023-01-13T16:51:25.250Z,6.82
2023-01-13T16:53:52.234Z,7.57
2023-01-13T16:56:35.537Z,4.93
2023-01-13T16:59:13.524Z,8.55
2023-01-13T17:01:43.121Z,8.48
2023-01-13T17:04:16.029Z,7.22
2023-01-13T17:07:01.042Z,6.72
2023-01-13T17:09:29.159Z,7.78
2023-01-13T17:11:56.901Z,5.07
2023-01-13T17:14:24.764Z,5.53
2023-01-13T17:16:54.684Z,6.65
2023-01-13T17:19:22.779Z,7.95
2023-01-13T17:21:51.208Z,8.77
2023-01-13T17:24:18.627Z,8.70
2023-01-13T17:26:50.944Z,5.40
2023-01-13T17:29:25.096Z,8.02
2023-01-13T17:31:53.009Z,8.48
2023-01-13T17:34:21.273Z,7.57
2023-01-13T17:36:48.675Z,5.97
2023-01-13T17:39:24.406Z,8.23
2023-01-13T17:41:53.074Z,8.55
2023-01-13T17:44:21.917Z,7.60
2023-01-13T17:46:49.455Z,5.72
2023-01-13T17:49:19.943Z,9.25
2023-01-13T17:51:51.213Z,5.32
2023-01-13T17:54:19.162Z,7.72
2023-01-13T17:56:46.250Z,7.40
2023-01-13T17:59:14.838Z,5.93
2023-01-13T18:01:42.279Z,6.75
2023-01-13T18:04:21.033Z,6.55
2023-01-13T18:06:48.900Z,8.05
2023-01-13T18:09:16.383Z,7.60
2023-01-13T18:11:44.235Z,5.80
2023-01-13T18:14:12.377Z,7.80
2023-01-13T18:16:39.529Z,6.18
2023-01-13T18:19:25.276Z,9.13
2023-01-13T18:22:11.083Z,8.23
2023-01-13T18:24:56.563Z,7.80
2023-01-13T18:27:35.185Z,6.40
2023-01-13T18:30:04.796Z,5.82
2023-01-13T18:32:33.569Z,6.65
2023-01-13T18:35:06.410Z,9.13
2023-01-13T18:37:38.835Z,10.15
2023-01-13T18:40:09.428Z,9.85
2023-01-13T18:42:54.110Z,16.73
2023-01-13T18:45:32.123Z,8.85
2023-01-13T18:48:01.372Z,15.85
2023-01-13T18:50:29.187Z,8.85
2023-01-13T18:52:56.739Z,7.25
2023-01-13T18:55:24.108Z,8.75
2023-01-13T18:57:51.500Z,7.25
2023-01-13T19:00:20.643Z,7.70
2023-01-13T19:05:34.458Z,9.52
2023-01-13T19:08:02.062Z,10.48
2023-01-13T19:10:32.128Z,9.77
2023-01-13T19:12:59.240Z,6.80
2023-01-13T19:15:26.175Z,11.05
2023-01-13T19:17:53.124Z,8.07
2023-01-13T19:20:20.289Z,9.20
2023-01-13T19:22:53.909Z,10.65
2023-01-13T19:25:21.052Z,9.55
2023-01-13T19:27:48.059Z,7.90
2023-01-13T19:30:15.111Z,6.30
2023-01-13T19:32:42.092Z,7.18
2023-01-13T19:35:09.397Z,6.15
2023-01-13T19:37:36.998Z,9.10
2023-01-13T19:40:09.276Z,6.72
2023-01-13T19:42:55.337Z,7.10
2023-01-13T19:45:28.323Z,9.25
2023-01-13T19:47:56.606Z,8.65
2023-01-13T19:50:24.273Z,8.77
2023-01-13T19:52:51.435Z,9.70
2023-01-13T19:55:19.783Z,6.65
2023-01-13T19:57:46.907Z,7.32
2023-01-13T20:00:20.521Z,9.38
2023-01-13T20:02:49.687Z,7.25
2023-01-13T20:05:21.381Z,5.55
2023-01-13T20:07:50.083Z,8.02
2023-01-13T20:10:18.517Z,5.90
2023-01-13T20:12:45.733Z,6.35
2023-01-13T20:15:12.752Z,8.65
2023-01-13T20:17:41.383Z,5.43
2023-01-13T20:20:09.762Z,4.97
2023-01-13T20:22:38.074Z,7.82
2023-01-13T20:25:05.435Z,5.45
2023-01-13T20:27:32.647Z,9.60
2023-01-13T20:29:59.587Z,5.53
2023-01-13T20:32:26.641Z,6.43
2023-01-13T20:34:53.774Z,6.13
2023-01-13T20:37:20.818Z,5.60
2023-01-13T20:39:48.281Z,6.90
2023-01-13T20:42:31.628Z,5.40
2023-01-13T20:45:01.705Z,5.50
2023-01-13T20:47:29.844Z,4.93
2023-01-13T20:49:57.128Z,5.65
2023-01-13T20:52:24.705Z,7.63
2023-01-13T20:54:51.794Z,10.35
2023-01-13T20:57:18.941Z,6.70
2023-01-13T20:59:45.935Z,8.10
2023-01-13T21:02:15.061Z,6.13
2023-01-13T21:04:42.638Z,4.75
2023-01-13T21:07:10.177Z,7.75
2023-01-13T21:09:37.395Z,8.93
2023-01-13T21:12:23.418Z,5.57
2023-01-13T21:15:08.773Z,7.68
2023-01-13T21:17:54.250Z,7.05
2023-01-13T21:20:21.349Z,8.13
2023-01-13T21:22:49.243Z,8.55
2023-01-13T21:25:17.736Z,6.55
2023-01-13T21:27:46.151Z,7.50
2023-01-13T21:30:15.063Z,6.28
2023-01-13T21:32:43.418Z,7.05
2023-01-13T21:35:11.799Z,6.38
2023-01-13T21:37:40.166Z,4.88
2023-01-13T21:40:10.299Z,8.18
2023-01-13T21:42:56.032Z,4.97
2023-01-13T21:45:41.725Z,5.00
2023-01-13T21:48:09.220Z,5.32
2023-01-13T21:50:38.217Z,4.10
2023-01-13T21:53:07.402Z,6.60
2023-01-13T21:55:36.643Z,6.70
2023-01-13T21:58:14.525Z,4.88
2023-01-13T22:00:43.587Z,6.68
2023-01-13T22:03:12.492Z,5.82
2023-01-13T22:05:40.136Z,4.18
2023-01-13T22:08:07.871Z,7.07
2023-01-13T22:10:35.377Z,4.00
2023-01-13T22:13:23.496Z,4.97
2023-01-13T22:15:50.565Z,3.70
2023-01-13T22:18:20.321Z,7.18
2023-01-13T22:20:48.777Z,4.38
2023-01-13T22:23:15.776Z,5.30
2023-01-13T22:25:42.726Z,4.07
2023-01-13T22:28:13.773Z,6.70
2023-01-13T22:30:40.881Z,4.28
2023-01-13T22:33:07.814Z,4.38
2023-01-13T22:35:34.837Z,5.68
2023-01-13T22:38:01.746Z,3.67
2023-01-13T22:40:28.775Z,3.30
2023-01-13T22:42:55.755Z,3.20
2023-01-13T22:45:22.797Z,3.53
2023-01-13T22:47:49.899Z,6.18
2023-01-13T22:50:20.747Z,5.22
2023-01-13T22:52:47.865Z,2.97
2023-01-13T22:55:15.032Z,4.10
2023-01-13T22:57:47.615Z,4.75
2023-01-13T23:00:19.035Z,5.97
2023-01-13T23:02:46.516Z,4.57
2023-01-13T23:05:13.986Z,5.40
2023-01-13T23:07:41.362Z,4.55
2023-01-13T23:10:08.971Z,4.45
2023-01-13T23:12:35.998Z,6.18
2023-01-13T23:15:03.562Z,4.90
2023-01-13T23:17:30.845Z,4.30
2023-01-13T23:19:57.829Z,4.20
2023-01-13T23:22:24.844Z,3.22
2023-01-13T23:24:51.824Z,3.45
2023-01-13T23:27:18.942Z,3.55
2023-01-13T23:29:45.898Z,4.82
2023-01-13T23:32:12.886Z,3.60
2023-01-13T23:34:39.831Z,3.85
2023-01-13T23:37:06.812Z,3.38
2023-01-13T23:39:33.734Z,3.75
2023-01-13T23:42:00.913Z,4.25
2023-01-13T23:44:27.898Z,3.38
2023-01-13T23:46:54.932Z,5.75
2023-01-13T23:49:21.943Z,3.53
2023-01-13T23:51:52.263Z,3.58
2023-01-13T23:54:19.542Z,4.55
2023-01-13T23:56:46.475Z,5.53
2023-01-13T23:59:13.474Z,4.32
